Bakersfield (BFL/KBFL)

Map

Destinations

Information

Location
Bakersfield, CA
Local Time
17:58 / 5:58 pm
GMT Time
01:58 / 1:58 am
Gates
2
No FAA reported delays
METAR KBFL 250154Z 36003KT 10SM CLR 18/11 A3000 RMK AO2 SLP155 T01830111 $
TAF KBFL 242320Z 2500/2524 VRB04KT 6SM HZ SCT200 FM251200 VRB04KT 3SM BR SCT200 FM251800 VRB03KT 6SM HZ SCT200